sensor_id;sensor_type;location;lat;lon;timestamp;P1;durP1;ratioP1;P2;durP2;ratioP2
29358;SDS011;16347;53.232;6.556;2022-07-01T00:01:53;5.05;;;1.40;;
29358;SDS011;16347;53.232;6.556;2022-07-01T00:04:45;6.43;;;1.55;;
29358;SDS011;16347;53.232;6.556;2022-07-01T00:07:31;4.30;;;1.15;;
29358;SDS011;16347;53.232;6.556;2022-07-01T00:10:02;7.78;;;1.20;;
29358;SDS011;16347;53.232;6.556;2022-07-01T00:12:31;5.20;;;1.35;;
29358;SDS011;16347;53.232;6.556;2022-07-01T00:18:11;3.92;;;1.02;;
29358;SDS011;16347;53.232;6.556;2022-07-01T00:21:15;2.85;;;1.10;;
29358;SDS011;16347;53.232;6.556;2022-07-01T00:23:49;5.70;;;1.20;;
29358;SDS011;16347;53.232;6.556;2022-07-01T00:26:17;3.08;;;1.52;;
29358;SDS011;16347;53.232;6.556;2022-07-01T00:28:51;4.18;;;0.98;;
29358;SDS011;16347;53.232;6.556;2022-07-01T00:31:26;6.18;;;1.60;;
29358;SDS011;16347;53.232;6.556;2022-07-01T00:33:54;5.80;;;1.17;;
29358;SDS011;16347;53.232;6.556;2022-07-01T00:36:22;3.00;;;1.10;;
29358;SDS011;16347;53.232;6.556;2022-07-01T00:41:24;6.40;;;1.10;;
29358;SDS011;16347;53.232;6.556;2022-07-01T00:44:04;3.28;;;1.40;;
29358;SDS011;16347;53.232;6.556;2022-07-01T00:46:54;3.17;;;1.30;;
29358;SDS011;16347;53.232;6.556;2022-07-01T00:49:45;4.53;;;1.48;;
29358;SDS011;16347;53.232;6.556;2022-07-01T00:52:14;4.80;;;1.40;;
29358;SDS011;16347;53.232;6.556;2022-07-01T00:54:42;6.57;;;1.33;;
29358;SDS011;16347;53.232;6.556;2022-07-01T00:57:11;4.53;;;1.60;;
29358;SDS011;16347;53.232;6.556;2022-07-01T00:59:40;2.85;;;1.63;;
29358;SDS011;16347;53.232;6.556;2022-07-01T01:02:09;2.75;;;1.20;;
29358;SDS011;16347;53.232;6.556;2022-07-01T01:04:53;5.30;;;1.58;;
29358;SDS011;16347;53.232;6.556;2022-07-01T01:08:11;3.17;;;1.40;;
29358;SDS011;16347;53.232;6.556;2022-07-01T01:11:03;3.63;;;1.27;;
29358;SDS011;16347;53.232;6.556;2022-07-01T01:13:31;7.65;;;1.40;;
29358;SDS011;16347;53.232;6.556;2022-07-01T01:15:59;6.20;;;1.20;;
29358;SDS011;16347;53.232;6.556;2022-07-01T01:18:41;12.43;;;1.35;;
29358;SDS011;16347;53.232;6.556;2022-07-01T01:21:16;3.20;;;1.40;;
29358;SDS011;16347;53.232;6.556;2022-07-01T01:23:56;4.00;;;1.40;;
29358;SDS011;16347;53.232;6.556;2022-07-01T01:26:44;3.45;;;1.48;;
29358;SDS011;16347;53.232;6.556;2022-07-01T01:29:12;3.05;;;1.13;;
29358;SDS011;16347;53.232;6.556;2022-07-01T01:33:09;2.05;;;0.90;;
29358;SDS011;16347;53.232;6.556;2022-07-01T01:35:43;1.77;;;0.98;;
29358;SDS011;16347;53.232;6.556;2022-07-01T01:38:18;1.65;;;0.93;;
29358;SDS011;16347;53.232;6.556;2022-07-01T01:40:53;5.03;;;1.13;;
29358;SDS011;16347;53.232;6.556;2022-07-01T01:43:21;1.92;;;1.17;;
29358;SDS011;16347;53.232;6.556;2022-07-01T01:45:50;4.45;;;1.33;;
29358;SDS011;16347;53.232;6.556;2022-07-01T01:48:21;2.78;;;1.25;;
29358;SDS011;16347;53.232;6.556;2022-07-01T01:50:52;2.58;;;1.10;;
29358;SDS011;16347;53.232;6.556;2022-07-01T01:53:21;2.85;;;1.05;;
29358;SDS011;16347;53.232;6.556;2022-07-01T01:55:55;2.45;;;1.17;;
29358;SDS011;16347;53.232;6.556;2022-07-01T01:58:54;3.30;;;1.55;;
29358;SDS011;16347;53.232;6.556;2022-07-01T02:01:22;1.23;;;1.00;;
29358;SDS011;16347;53.232;6.556;2022-07-01T02:03:59;6.57;;;1.23;;
29358;SDS011;16347;53.232;6.556;2022-07-01T02:06:36;5.22;;;1.40;;
29358;SDS011;16347;53.232;6.556;2022-07-01T02:09:17;1.73;;;1.10;;
29358;SDS011;16347;53.232;6.556;2022-07-01T02:11:45;4.32;;;1.23;;
29358;SDS011;16347;53.232;6.556;2022-07-01T02:14:13;5.53;;;1.40;;
29358;SDS011;16347;53.232;6.556;2022-07-01T02:16:41;4.57;;;1.40;;
29358;SDS011;16347;53.232;6.556;2022-07-01T02:23:21;5.30;;;1.35;;
29358;SDS011;16347;53.232;6.556;2022-07-01T02:25:56;6.47;;;1.58;;
29358;SDS011;16347;53.232;6.556;2022-07-01T02:31:59;2.22;;;1.40;;
29358;SDS011;16347;53.232;6.556;2022-07-01T02:34:27;4.00;;;1.48;;
29358;SDS011;16347;53.232;6.556;2022-07-01T02:36:55;3.97;;;1.40;;
29358;SDS011;16347;53.232;6.556;2022-07-01T02:39:23;3.40;;;1.60;;
29358;SDS011;16347;53.232;6.556;2022-07-01T02:42:10;1.90;;;1.33;;
29358;SDS011;16347;53.232;6.556;2022-07-01T02:44:57;3.42;;;1.35;;
29358;SDS011;16347;53.232;6.556;2022-07-01T02:47:25;1.85;;;1.30;;
29358;SDS011;16347;53.232;6.556;2022-07-01T02:50:04;3.30;;;1.77;;
29358;SDS011;16347;53.232;6.556;2022-07-01T02:52:41;6.15;;;1.52;;
29358;SDS011;16347;53.232;6.556;2022-07-01T02:59:19;1.93;;;1.60;;
29358;SDS011;16347;53.232;6.556;2022-07-01T03:02:08;3.88;;;1.60;;
29358;SDS011;16347;53.232;6.556;2022-07-01T03:04:54;3.03;;;2.08;;
29358;SDS011;16347;53.232;6.556;2022-07-01T03:07:22;4.30;;;1.88;;
29358;SDS011;16347;53.232;6.556;2022-07-01T03:09:50;8.23;;;2.25;;
29358;SDS011;16347;53.232;6.556;2022-07-01T03:12:18;7.30;;;2.08;;
29358;SDS011;16347;53.232;6.556;2022-07-01T03:17:59;6.18;;;2.20;;
29358;SDS011;16347;53.232;6.556;2022-07-01T03:23:53;4.78;;;2.30;;
29358;SDS011;16347;53.232;6.556;2022-07-01T03:26:55;10.52;;;2.40;;
29358;SDS011;16347;53.232;6.556;2022-07-01T03:29:25;5.22;;;2.15;;
29358;SDS011;16347;53.232;6.556;2022-07-01T03:31:55;3.67;;;2.10;;
29358;SDS011;16347;53.232;6.556;2022-07-01T03:34:26;4.80;;;2.30;;
29358;SDS011;16347;53.232;6.556;2022-07-01T03:39:51;5.32;;;2.17;;
29358;SDS011;16347;53.232;6.556;2022-07-01T03:42:20;4.88;;;2.38;;
29358;SDS011;16347;53.232;6.556;2022-07-01T03:44:48;8.07;;;2.47;;
29358;SDS011;16347;53.232;6.556;2022-07-01T03:47:17;6.47;;;2.47;;
29358;SDS011;16347;53.232;6.556;2022-07-01T03:50:30;3.25;;;2.08;;
29358;SDS011;16347;53.232;6.556;2022-07-01T03:53:38;4.03;;;2.42;;
29358;SDS011;16347;53.232;6.556;2022-07-01T03:56:32;5.57;;;2.63;;
29358;SDS011;16347;53.232;6.556;2022-07-01T03:59:00;7.05;;;2.63;;
29358;SDS011;16347;53.232;6.556;2022-07-01T04:01:29;6.57;;;2.88;;
29358;SDS011;16347;53.232;6.556;2022-07-01T04:03:59;4.55;;;2.33;;
29358;SDS011;16347;53.232;6.556;2022-07-01T04:06:39;5.90;;;2.75;;
29358;SDS011;16347;53.232;6.556;2022-07-01T04:09:28;7.25;;;2.55;;
29358;SDS011;16347;53.232;6.556;2022-07-01T04:12:08;4.55;;;2.55;;
29358;SDS011;16347;53.232;6.556;2022-07-01T04:14:39;6.22;;;3.20;;
29358;SDS011;16347;53.232;6.556;2022-07-01T04:17:11;5.15;;;2.63;;
29358;SDS011;16347;53.232;6.556;2022-07-01T04:19:43;3.30;;;2.22;;
29358;SDS011;16347;53.232;6.556;2022-07-01T04:22:14;6.33;;;3.37;;
29358;SDS011;16347;53.232;6.556;2022-07-01T04:25:05;6.95;;;3.28;;
29358;SDS011;16347;53.232;6.556;2022-07-01T04:27:40;8.20;;;3.08;;
29358;SDS011;16347;53.232;6.556;2022-07-01T04:30:14;6.78;;;2.70;;
29358;SDS011;16347;53.232;6.556;2022-07-01T04:32:58;6.40;;;3.03;;
29358;SDS011;16347;53.232;6.556;2022-07-01T04:35:34;9.32;;;3.00;;
29358;SDS011;16347;53.232;6.556;2022-07-01T04:39:34;7.70;;;3.03;;
29358;SDS011;16347;53.232;6.556;2022-07-01T04:42:11;12.95;;;4.05;;
29358;SDS011;16347;53.232;6.556;2022-07-01T04:44:41;7.10;;;3.92;;
29358;SDS011;16347;53.232;6.556;2022-07-01T04:47:10;8.77;;;4.20;;
29358;SDS011;16347;53.232;6.556;2022-07-01T04:49:43;5.47;;;3.10;;
29358;SDS011;16347;53.232;6.556;2022-07-01T04:52:18;7.90;;;3.75;;
29358;SDS011;16347;53.232;6.556;2022-07-01T04:54:52;6.88;;;3.55;;
29358;SDS011;16347;53.232;6.556;2022-07-01T04:57:40;6.68;;;4.22;;
29358;SDS011;16347;53.232;6.556;2022-07-01T05:00:14;9.32;;;3.72;;
29358;SDS011;16347;53.232;6.556;2022-07-01T05:02:43;10.98;;;4.47;;
29358;SDS011;16347;53.232;6.556;2022-07-01T05:05:11;5.60;;;3.92;;
29358;SDS011;16347;53.232;6.556;2022-07-01T05:07:40;7.70;;;4.25;;
29358;SDS011;16347;53.232;6.556;2022-07-01T05:10:11;6.57;;;3.90;;
29358;SDS011;16347;53.232;6.556;2022-07-01T05:12:39;12.85;;;4.25;;
29358;SDS011;16347;53.232;6.556;2022-07-01T05:15:10;6.95;;;4.32;;
29358;SDS011;16347;53.232;6.556;2022-07-01T05:17:39;10.38;;;4.80;;
29358;SDS011;16347;53.232;6.556;2022-07-01T05:20:24;6.90;;;5.15;;
29358;SDS011;16347;53.232;6.556;2022-07-01T05:23:17;8.93;;;5.30;;
29358;SDS011;16347;53.232;6.556;2022-07-01T05:26:00;8.60;;;5.53;;
29358;SDS011;16347;53.232;6.556;2022-07-01T05:29:35;13.02;;;6.85;;
29358;SDS011;16347;53.232;6.556;2022-07-01T05:32:18;14.50;;;7.78;;
29358;SDS011;16347;53.232;6.556;2022-07-01T05:35:00;11.48;;;7.60;;
29358;SDS011;16347;53.232;6.556;2022-07-01T05:37:48;16.83;;;9.23;;
29358;SDS011;16347;53.232;6.556;2022-07-01T05:40:17;14.73;;;9.15;;
29358;SDS011;16347;53.232;6.556;2022-07-01T05:42:45;15.48;;;9.73;;
29358;SDS011;16347;53.232;6.556;2022-07-01T05:45:16;14.82;;;9.98;;
29358;SDS011;16347;53.232;6.556;2022-07-01T05:48:09;15.73;;;10.93;;
29358;SDS011;16347;53.232;6.556;2022-07-01T05:51:06;19.08;;;11.45;;
29358;SDS011;16347;53.232;6.556;2022-07-01T05:54:41;19.33;;;12.00;;
29358;SDS011;16347;53.232;6.556;2022-07-01T05:57:13;20.85;;;12.20;;
29358;SDS011;16347;53.232;6.556;2022-07-01T05:59:41;19.40;;;13.32;;
29358;SDS011;16347;53.232;6.556;2022-07-01T06:02:09;22.00;;;12.30;;
29358;SDS011;16347;53.232;6.556;2022-07-01T06:04:53;24.90;;;12.98;;
29358;SDS011;16347;53.232;6.556;2022-07-01T06:07:34;21.05;;;13.77;;
29358;SDS011;16347;53.232;6.556;2022-07-01T06:10:02;21.75;;;15.07;;
29358;SDS011;16347;53.232;6.556;2022-07-01T06:12:31;26.55;;;14.98;;
29358;SDS011;16347;53.232;6.556;2022-07-01T06:14:59;27.70;;;15.05;;
29358;SDS011;16347;53.232;6.556;2022-07-01T06:17:34;30.67;;;15.07;;
29358;SDS011;16347;53.232;6.556;2022-07-01T06:20:12;23.20;;;16.10;;
29358;SDS011;16347;53.232;6.556;2022-07-01T06:23:03;25.15;;;16.10;;
29358;SDS011;16347;53.232;6.556;2022-07-01T06:25:35;28.75;;;16.83;;
29358;SDS011;16347;53.232;6.556;2022-07-01T06:30:38;27.90;;;15.18;;
29358;SDS011;16347;53.232;6.556;2022-07-01T06:33:13;25.00;;;15.05;;
29358;SDS011;16347;53.232;6.556;2022-07-01T06:35:43;20.95;;;15.75;;
29358;SDS011;16347;53.232;6.556;2022-07-01T06:38:17;26.63;;;16.45;;
29358;SDS011;16347;53.232;6.556;2022-07-01T06:40:48;22.67;;;15.65;;
29358;SDS011;16347;53.232;6.556;2022-07-01T06:44:19;25.00;;;15.73;;
29358;SDS011;16347;53.232;6.556;2022-07-01T06:46:53;26.15;;;15.88;;
29358;SDS011;16347;53.232;6.556;2022-07-01T06:49:29;28.40;;;15.75;;
29358;SDS011;16347;53.232;6.556;2022-07-01T06:52:00;37.20;;;14.98;;
29358;SDS011;16347;53.232;6.556;2022-07-01T06:54:29;24.27;;;15.50;;
29358;SDS011;16347;53.232;6.556;2022-07-01T06:56:57;22.10;;;15.35;;
29358;SDS011;16347;53.232;6.556;2022-07-01T06:59:26;28.60;;;13.52;;
29358;SDS011;16347;53.232;6.556;2022-07-01T07:01:55;26.13;;;14.77;;
29358;SDS011;16347;53.232;6.556;2022-07-01T07:04:24;26.05;;;16.10;;
29358;SDS011;16347;53.232;6.556;2022-07-01T07:07:12;24.75;;;16.23;;
29358;SDS011;16347;53.232;6.556;2022-07-01T07:09:40;25.80;;;16.55;;
29358;SDS011;16347;53.232;6.556;2022-07-01T07:12:11;26.88;;;16.55;;
29358;SDS011;16347;53.232;6.556;2022-07-01T07:14:41;27.80;;;16.80;;
29358;SDS011;16347;53.232;6.556;2022-07-01T07:17:09;30.35;;;16.58;;
29358;SDS011;16347;53.232;6.556;2022-07-01T07:19:37;25.55;;;16.67;;
29358;SDS011;16347;53.232;6.556;2022-07-01T07:22:06;33.58;;;17.40;;
29358;SDS011;16347;53.232;6.556;2022-07-01T07:24:35;24.98;;;16.88;;
29358;SDS011;16347;53.232;6.556;2022-07-01T07:27:05;25.30;;;17.33;;
29358;SDS011;16347;53.232;6.556;2022-07-01T07:29:49;28.88;;;15.90;;
29358;SDS011;16347;53.232;6.556;2022-07-01T07:32:17;30.58;;;18.20;;
29358;SDS011;16347;53.232;6.556;2022-07-01T07:34:51;29.27;;;17.45;;
29358;SDS011;16347;53.232;6.556;2022-07-01T07:37:34;28.10;;;17.80;;
29358;SDS011;16347;53.232;6.556;2022-07-01T07:40:10;26.95;;;17.67;;
29358;SDS011;16347;53.232;6.556;2022-07-01T07:42:45;32.17;;;17.67;;
29358;SDS011;16347;53.232;6.556;2022-07-01T07:45:16;31.25;;;18.33;;
29358;SDS011;16347;53.232;6.556;2022-07-01T07:47:46;24.42;;;17.85;;
29358;SDS011;16347;53.232;6.556;2022-07-01T07:50:16;25.33;;;17.92;;
29358;SDS011;16347;53.232;6.556;2022-07-01T07:52:44;29.55;;;17.75;;
29358;SDS011;16347;53.232;6.556;2022-07-01T07:55:24;33.95;;;17.33;;
29358;SDS011;16347;53.232;6.556;2022-07-01T07:57:54;25.13;;;17.30;;
29358;SDS011;16347;53.232;6.556;2022-07-01T08:00:24;32.47;;;18.77;;
29358;SDS011;16347;53.232;6.556;2022-07-01T08:02:51;27.70;;;16.63;;
29358;SDS011;16347;53.232;6.556;2022-07-01T08:05:20;27.77;;;15.77;;
29358;SDS011;16347;53.232;6.556;2022-07-01T08:07:48;27.95;;;16.13;;
29358;SDS011;16347;53.232;6.556;2022-07-01T08:10:34;24.25;;;16.30;;
29358;SDS011;16347;53.232;6.556;2022-07-01T08:13:17;38.07;;;16.80;;
29358;SDS011;16347;53.232;6.556;2022-07-01T08:15:46;23.40;;;15.77;;
29358;SDS011;16347;53.232;6.556;2022-07-01T08:18:17;25.50;;;16.77;;
29358;SDS011;16347;53.232;6.556;2022-07-01T08:20:46;24.73;;;16.45;;
29358;SDS011;16347;53.232;6.556;2022-07-01T08:23:22;22.63;;;14.75;;
29358;SDS011;16347;53.232;6.556;2022-07-01T08:25:50;25.98;;;15.25;;
29358;SDS011;16347;53.232;6.556;2022-07-01T08:28:19;22.55;;;14.10;;
29358;SDS011;16347;53.232;6.556;2022-07-01T08:30:48;20.77;;;13.20;;
29358;SDS011;16347;53.232;6.556;2022-07-01T08:33:16;19.10;;;12.20;;
29358;SDS011;16347;53.232;6.556;2022-07-01T08:35:44;19.33;;;12.25;;
29358;SDS011;16347;53.232;6.556;2022-07-01T08:38:14;17.30;;;10.30;;
29358;SDS011;16347;53.232;6.556;2022-07-01T08:40:48;18.70;;;10.48;;
29358;SDS011;16347;53.232;6.556;2022-07-01T08:43:20;17.58;;;10.02;;
29358;SDS011;16347;53.232;6.556;2022-07-01T08:45:51;16.75;;;9.75;;
29358;SDS011;16347;53.232;6.556;2022-07-01T08:48:20;18.08;;;9.40;;
29358;SDS011;16347;53.232;6.556;2022-07-01T08:50:48;22.50;;;9.73;;
29358;SDS011;16347;53.232;6.556;2022-07-01T08:53:16;16.77;;;7.30;;
29358;SDS011;16347;53.232;6.556;2022-07-01T08:55:44;20.70;;;9.07;;
29358;SDS011;16347;53.232;6.556;2022-07-01T08:58:30;17.45;;;7.90;;
29358;SDS011;16347;53.232;6.556;2022-07-01T09:01:16;12.93;;;7.22;;
29358;SDS011;16347;53.232;6.556;2022-07-01T09:03:45;12.05;;;6.30;;
29358;SDS011;16347;53.232;6.556;2022-07-01T09:06:19;16.13;;;6.13;;
29358;SDS011;16347;53.232;6.556;2022-07-01T09:08:49;8.85;;;4.88;;
29358;SDS011;16347;53.232;6.556;2022-07-01T09:11:18;10.75;;;4.80;;
29358;SDS011;16347;53.232;6.556;2022-07-01T09:14:05;10.45;;;4.75;;
29358;SDS011;16347;53.232;6.556;2022-07-01T09:16:42;13.48;;;5.35;;
29358;SDS011;16347;53.232;6.556;2022-07-01T09:19:12;8.70;;;4.85;;
29358;SDS011;16347;53.232;6.556;2022-07-01T09:21:41;9.95;;;3.80;;
29358;SDS011;16347;53.232;6.556;2022-07-01T09:24:27;12.67;;;4.63;;
29358;SDS011;16347;53.232;6.556;2022-07-01T09:27:00;8.32;;;4.53;;
29358;SDS011;16347;53.232;6.556;2022-07-01T09:29:33;13.88;;;5.20;;
29358;SDS011;16347;53.232;6.556;2022-07-01T09:32:08;18.13;;;5.88;;
29358;SDS011;16347;53.232;6.556;2022-07-01T09:34:39;11.43;;;5.72;;
29358;SDS011;16347;53.232;6.556;2022-07-01T09:37:10;9.00;;;5.13;;
29358;SDS011;16347;53.232;6.556;2022-07-01T09:40:01;9.73;;;5.40;;
29358;SDS011;16347;53.232;6.556;2022-07-01T09:42:38;9.00;;;4.90;;
29358;SDS011;16347;53.232;6.556;2022-07-01T09:45:13;10.90;;;6.15;;
29358;SDS011;16347;53.232;6.556;2022-07-01T09:47:47;9.05;;;4.70;;
29358;SDS011;16347;53.232;6.556;2022-07-01T09:50:15;13.43;;;4.80;;
29358;SDS011;16347;53.232;6.556;2022-07-01T09:52:44;8.05;;;4.78;;
29358;SDS011;16347;53.232;6.556;2022-07-01T09:55:13;7.30;;;3.80;;
29358;SDS011;16347;53.232;6.556;2022-07-01T09:57:41;5.97;;;2.80;;
29358;SDS011;16347;53.232;6.556;2022-07-01T10:00:09;5.55;;;2.58;;
29358;SDS011;16347;53.232;6.556;2022-07-01T10:02:38;9.85;;;2.80;;
29358;SDS011;16347;53.232;6.556;2022-07-01T10:05:12;9.38;;;3.00;;
29358;SDS011;16347;53.232;6.556;2022-07-01T10:07:57;8.93;;;2.90;;
29358;SDS011;16347;53.232;6.556;2022-07-01T10:10:41;11.35;;;3.17;;
29358;SDS011;16347;53.232;6.556;2022-07-01T10:13:21;8.57;;;3.58;;
29358;SDS011;16347;53.232;6.556;2022-07-01T10:15:58;9.02;;;4.03;;
29358;SDS011;16347;53.232;6.556;2022-07-01T10:18:29;13.23;;;3.08;;
29358;SDS011;16347;53.232;6.556;2022-07-01T10:21:04;16.75;;;3.55;;
29358;SDS011;16347;53.232;6.556;2022-07-01T10:23:37;7.40;;;3.63;;
29358;SDS011;16347;53.232;6.556;2022-07-01T10:26:09;11.73;;;3.70;;
29358;SDS011;16347;53.232;6.556;2022-07-01T10:28:42;8.80;;;3.30;;
29358;SDS011;16347;53.232;6.556;2022-07-01T10:31:12;7.32;;;2.60;;
29358;SDS011;16347;53.232;6.556;2022-07-01T10:33:46;6.70;;;3.30;;
29358;SDS011;16347;53.232;6.556;2022-07-01T10:36:24;7.53;;;2.75;;
29358;SDS011;16347;53.232;6.556;2022-07-01T10:41:58;10.10;;;3.35;;
29358;SDS011;16347;53.232;6.556;2022-07-01T10:45:04;9.10;;;2.92;;
29358;SDS011;16347;53.232;6.556;2022-07-01T10:47:34;8.27;;;2.78;;
29358;SDS011;16347;53.232;6.556;2022-07-01T10:50:04;9.38;;;3.22;;
29358;SDS011;16347;53.232;6.556;2022-07-01T10:52:42;7.70;;;3.72;;
29358;SDS011;16347;53.232;6.556;2022-07-01T10:55:35;9.93;;;3.47;;
29358;SDS011;16347;53.232;6.556;2022-07-01T10:58:36;7.47;;;3.88;;
29358;SDS011;16347;53.232;6.556;2022-07-01T11:01:05;8.52;;;4.10;;
29358;SDS011;16347;53.232;6.556;2022-07-01T11:03:34;9.45;;;4.10;;
29358;SDS011;16347;53.232;6.556;2022-07-01T11:06:03;12.23;;;3.42;;
29358;SDS011;16347;53.232;6.556;2022-07-01T11:08:38;11.45;;;3.60;;
29358;SDS011;16347;53.232;6.556;2022-07-01T11:11:12;8.43;;;3.25;;
29358;SDS011;16347;53.232;6.556;2022-07-01T11:13:44;8.20;;;2.53;;
29358;SDS011;16347;53.232;6.556;2022-07-01T11:16:20;3.67;;;1.13;;
29358;SDS011;16347;53.232;6.556;2022-07-01T11:18:48;3.75;;;1.30;;
29358;SDS011;16347;53.232;6.556;2022-07-01T11:21:18;4.15;;;1.10;;
29358;SDS011;16347;53.232;6.556;2022-07-01T11:23:53;5.78;;;1.50;;
29358;SDS011;16347;53.232;6.556;2022-07-01T11:26:24;5.20;;;1.20;;
29358;SDS011;16347;53.232;6.556;2022-07-01T11:28:56;3.75;;;1.30;;
29358;SDS011;16347;53.232;6.556;2022-07-01T11:31:27;4.35;;;1.33;;
29358;SDS011;16347;53.232;6.556;2022-07-01T11:33:56;9.38;;;1.35;;
29358;SDS011;16347;53.232;6.556;2022-07-01T11:36:24;5.90;;;1.20;;
29358;SDS011;16347;53.232;6.556;2022-07-01T11:39:12;6.40;;;1.35;;
29358;SDS011;16347;53.232;6.556;2022-07-01T11:42:07;2.22;;;0.77;;
29358;SDS011;16347;53.232;6.556;2022-07-01T11:44:39;6.68;;;1.20;;
29358;SDS011;16347;53.232;6.556;2022-07-01T11:47:12;8.43;;;1.20;;
29358;SDS011;16347;53.232;6.556;2022-07-01T11:49:55;5.85;;;1.98;;
29358;SDS011;16347;53.232;6.556;2022-07-01T11:52:26;3.67;;;1.33;;
29358;SDS011;16347;53.232;6.556;2022-07-01T11:54:56;5.28;;;1.60;;
29358;SDS011;16347;53.232;6.556;2022-07-01T11:57:49;2.38;;;1.20;;
29358;SDS011;16347;53.232;6.556;2022-07-01T12:00:19;4.72;;;1.20;;
29358;SDS011;16347;53.232;6.556;2022-07-01T12:02:49;7.38;;;1.65;;
29358;SDS011;16347;53.232;6.556;2022-07-01T12:05:17;6.60;;;1.42;;
29358;SDS011;16347;53.232;6.556;2022-07-01T12:08:22;4.97;;;1.33;;
29358;SDS011;16347;53.232;6.556;2022-07-01T12:10:52;7.63;;;1.17;;
29358;SDS011;16347;53.232;6.556;2022-07-01T12:13:21;6.13;;;1.38;;
29358;SDS011;16347;53.232;6.556;2022-07-01T12:15:50;6.05;;;1.48;;
29358;SDS011;16347;53.232;6.556;2022-07-01T12:18:18;4.07;;;1.30;;
29358;SDS011;16347;53.232;6.556;2022-07-01T12:20:49;5.07;;;1.55;;
29358;SDS011;16347;53.232;6.556;2022-07-01T12:23:18;4.65;;;1.30;;
29358;SDS011;16347;53.232;6.556;2022-07-01T12:25:49;4.88;;;1.55;;
29358;SDS011;16347;53.232;6.556;2022-07-01T12:28:30;9.73;;;1.30;;
29358;SDS011;16347;53.232;6.556;2022-07-01T12:34:19;6.93;;;1.90;;
29358;SDS011;16347;53.232;6.556;2022-07-01T12:36:54;4.57;;;1.08;;
29358;SDS011;16347;53.232;6.556;2022-07-01T12:39:55;8.60;;;1.67;;
29358;SDS011;16347;53.232;6.556;2022-07-01T12:42:36;5.22;;;1.60;;
29358;SDS011;16347;53.232;6.556;2022-07-01T12:45:42;5.38;;;1.60;;
29358;SDS011;16347;53.232;6.556;2022-07-01T12:48:12;4.53;;;1.15;;
29358;SDS011;16347;53.232;6.556;2022-07-01T12:50:40;4.47;;;1.27;;
29358;SDS011;16347;53.232;6.556;2022-07-01T12:53:26;5.25;;;1.20;;
29358;SDS011;16347;53.232;6.556;2022-07-01T12:55:56;4.78;;;1.13;;
29358;SDS011;16347;53.232;6.556;2022-07-01T12:58:48;6.18;;;1.10;;
29358;SDS011;16347;53.232;6.556;2022-07-01T13:01:20;11.80;;;1.40;;
29358;SDS011;16347;53.232;6.556;2022-07-01T13:03:48;7.45;;;1.33;;
29358;SDS011;16347;53.232;6.556;2022-07-01T13:06:16;7.07;;;1.77;;
29358;SDS011;16347;53.232;6.556;2022-07-01T13:08:44;4.85;;;0.93;;
29358;SDS011;16347;53.232;6.556;2022-07-01T13:11:12;3.72;;;1.02;;
29358;SDS011;16347;53.232;6.556;2022-07-01T13:13:40;4.57;;;0.80;;
29358;SDS011;16347;53.232;6.556;2022-07-01T13:16:08;3.65;;;0.90;;
29358;SDS011;16347;53.232;6.556;2022-07-01T13:18:38;4.20;;;1.10;;
29358;SDS011;16347;53.232;6.556;2022-07-01T13:21:06;6.53;;;1.00;;
29358;SDS011;16347;53.232;6.556;2022-07-01T13:24:13;5.22;;;1.20;;
29358;SDS011;16347;53.232;6.556;2022-07-01T13:26:59;6.40;;;1.08;;
29358;SDS011;16347;53.232;6.556;2022-07-01T13:29:28;3.30;;;0.90;;
29358;SDS011;16347;53.232;6.556;2022-07-01T13:31:56;4.72;;;0.93;;
29358;SDS011;16347;53.232;6.556;2022-07-01T13:34:31;2.80;;;1.30;;
29358;SDS011;16347;53.232;6.556;2022-07-01T13:37:20;4.80;;;0.88;;
29358;SDS011;16347;53.232;6.556;2022-07-01T13:39:48;8.35;;;1.20;;
29358;SDS011;16347;53.232;6.556;2022-07-01T13:42:16;5.10;;;0.90;;
29358;SDS011;16347;53.232;6.556;2022-07-01T13:44:47;8.60;;;1.13;;
29358;SDS011;16347;53.232;6.556;2022-07-01T13:47:25;4.78;;;1.05;;
29358;SDS011;16347;53.232;6.556;2022-07-01T13:50:16;7.30;;;1.00;;
29358;SDS011;16347;53.232;6.556;2022-07-01T13:52:46;1.85;;;0.98;;
29358;SDS011;16347;53.232;6.556;2022-07-01T13:55:14;3.92;;;0.95;;
29358;SDS011;16347;53.232;6.556;2022-07-01T13:57:42;4.63;;;0.90;;
29358;SDS011;16347;53.232;6.556;2022-07-01T14:00:12;5.63;;;1.15;;
29358;SDS011;16347;53.232;6.556;2022-07-01T14:02:40;6.75;;;0.93;;
29358;SDS011;16347;53.232;6.556;2022-07-01T14:05:08;4.55;;;1.27;;
29358;SDS011;16347;53.232;6.556;2022-07-01T14:07:38;8.38;;;0.82;;
29358;SDS011;16347;53.232;6.556;2022-07-01T14:10:06;5.50;;;1.20;;
29358;SDS011;16347;53.232;6.556;2022-07-01T14:12:54;6.40;;;1.10;;
29358;SDS011;16347;53.232;6.556;2022-07-01T14:15:33;9.43;;;1.52;;
29358;SDS011;16347;53.232;6.556;2022-07-01T14:18:02;8.48;;;0.95;;
29358;SDS011;16347;53.232;6.556;2022-07-01T14:20:48;4.38;;;0.90;;
29358;SDS011;16347;53.232;6.556;2022-07-01T14:24:25;6.18;;;0.68;;
29358;SDS011;16347;53.232;6.556;2022-07-01T14:26:53;5.43;;;0.80;;
29358;SDS011;16347;53.232;6.556;2022-07-01T14:29:23;5.15;;;0.80;;
29358;SDS011;16347;53.232;6.556;2022-07-01T14:31:51;4.97;;;0.85;;
29358;SDS011;16347;53.232;6.556;2022-07-01T14:34:49;3.08;;;0.70;;
29358;SDS011;16347;53.232;6.556;2022-07-01T14:37:20;7.30;;;1.30;;
29358;SDS011;16347;53.232;6.556;2022-07-01T14:39:49;4.13;;;0.80;;
29358;SDS011;16347;53.232;6.556;2022-07-01T14:42:25;3.72;;;0.70;;
29358;SDS011;16347;53.232;6.556;2022-07-01T14:45:00;3.85;;;0.90;;
29358;SDS011;16347;53.232;6.556;2022-07-01T14:47:34;5.22;;;0.75;;
29358;SDS011;16347;53.232;6.556;2022-07-01T14:50:20;3.00;;;0.70;;
29358;SDS011;16347;53.232;6.556;2022-07-01T14:52:57;4.32;;;0.95;;
29358;SDS011;16347;53.232;6.556;2022-07-01T14:56:02;8.63;;;1.05;;
29358;SDS011;16347;53.232;6.556;2022-07-01T14:58:31;7.47;;;1.30;;
29358;SDS011;16347;53.232;6.556;2022-07-01T15:00:59;6.53;;;1.05;;
29358;SDS011;16347;53.232;6.556;2022-07-01T15:03:30;4.63;;;1.35;;
29358;SDS011;16347;53.232;6.556;2022-07-01T15:05:58;5.43;;;0.95;;
29358;SDS011;16347;53.232;6.556;2022-07-01T15:08:29;2.45;;;0.68;;
29358;SDS011;16347;53.232;6.556;2022-07-01T15:11:00;7.65;;;1.30;;
29358;SDS011;16347;53.232;6.556;2022-07-01T15:13:31;7.57;;;1.37;;
29358;SDS011;16347;53.232;6.556;2022-07-01T15:16:31;7.30;;;1.20;;
29358;SDS011;16347;53.232;6.556;2022-07-01T15:19:55;10.35;;;1.35;;
29358;SDS011;16347;53.232;6.556;2022-07-01T15:22:23;3.20;;;0.80;;
29358;SDS011;16347;53.232;6.556;2022-07-01T15:24:54;3.47;;;0.75;;
29358;SDS011;16347;53.232;6.556;2022-07-01T15:27:28;9.60;;;1.35;;
29358;SDS011;16347;53.232;6.556;2022-07-01T15:30:00;4.22;;;0.93;;
29358;SDS011;16347;53.232;6.556;2022-07-01T15:32:29;9.05;;;1.55;;
29358;SDS011;16347;53.232;6.556;2022-07-01T15:34:57;6.50;;;1.35;;
29358;SDS011;16347;53.232;6.556;2022-07-01T15:37:25;10.25;;;1.20;;
29358;SDS011;16347;53.232;6.556;2022-07-01T15:40:08;5.25;;;1.23;;
29358;SDS011;16347;53.232;6.556;2022-07-01T15:46:52;8.27;;;1.27;;
29358;SDS011;16347;53.232;6.556;2022-07-01T15:49:25;7.57;;;1.38;;
29358;SDS011;16347;53.232;6.556;2022-07-01T15:51:56;7.45;;;1.25;;
29358;SDS011;16347;53.232;6.556;2022-07-01T15:54:24;8.82;;;1.60;;
29358;SDS011;16347;53.232;6.556;2022-07-01T15:56:53;7.05;;;1.23;;
29358;SDS011;16347;53.232;6.556;2022-07-01T15:59:30;7.00;;;1.80;;
29358;SDS011;16347;53.232;6.556;2022-07-01T16:01:59;11.65;;;1.40;;
29358;SDS011;16347;53.232;6.556;2022-07-01T16:04:33;8.75;;;1.45;;
29358;SDS011;16347;53.232;6.556;2022-07-01T16:07:02;3.47;;;1.02;;
29358;SDS011;16347;53.232;6.556;2022-07-01T16:09:31;6.05;;;1.05;;
29358;SDS011;16347;53.232;6.556;2022-07-01T16:12:11;5.10;;;1.17;;
29358;SDS011;16347;53.232;6.556;2022-07-01T16:14:58;7.53;;;0.95;;